sensor_id;sensor_type;location;lat;lon;timestamp;pressure;altitude;pressure_sealevel;temperature;humidity
45541;BME280;31265;49.680;8.608;2024-02-04T00:00:12;101668.19;;;8.09;100.00
45541;BME280;31265;49.680;8.608;2024-02-04T00:02:42;101672.75;;;8.06;100.00
45541;BME280;31265;49.680;8.608;2024-02-04T00:05:12;101667.47;;;8.03;100.00
45541;BME280;31265;49.680;8.608;2024-02-04T00:07:43;101661.97;;;7.97;100.00
45541;BME280;31265;49.680;8.608;2024-02-04T00:10:15;101670.03;;;7.95;100.00
45541;BME280;31265;49.680;8.608;2024-02-04T00:12:47;101670.31;;;7.91;100.00
45541;BME280;31265;49.680;8.608;2024-02-04T00:15:16;101664.78;;;7.91;100.00
45541;BME280;31265;49.680;8.608;2024-02-04T00:17:47;101672.31;;;7.91;100.00
45541;BME280;31265;49.680;8.608;2024-02-04T00:20:16;101672.31;;;7.91;100.00
45541;BME280;31265;49.680;8.608;2024-02-04T00:22:46;101663.78;;;7.89;100.00
45541;BME280;31265;49.680;8.608;2024-02-04T00:25:17;101662.03;;;7.86;100.00
45541;BME280;31265;49.680;8.608;2024-02-04T00:27:47;101657.47;;;7.94;100.00
45541;BME280;31265;49.680;8.608;2024-02-04T00:30:17;101656.72;;;7.93;100.00
45541;BME280;31265;49.680;8.608;2024-02-04T00:32:47;101656.72;;;7.93;100.00
45541;BME280;31265;49.680;8.608;2024-02-04T00:35:17;101650.72;;;7.89;100.00
45541;BME280;31265;49.680;8.608;2024-02-04T00:37:48;101645.44;;;7.86;100.00
45541;BME280;31265;49.680;8.608;2024-02-04T00:40:21;101641.19;;;7.85;100.00
45541;BME280;31265;49.680;8.608;2024-02-04T00:42:51;101640.91;;;7.88;100.00
45541;BME280;31265;49.680;8.608;2024-02-04T00:45:20;101639.38;;;7.93;100.00
45541;BME280;31265;49.680;8.608;2024-02-04T00:47:51;101644.13;;;7.98;100.00
45541;BME280;31265;49.680;8.608;2024-02-04T00:50:24;101644.13;;;7.98;100.00
45541;BME280;31265;49.680;8.608;2024-02-04T00:52:55;101631.59;;;7.97;100.00
45541;BME280;31265;49.680;8.608;2024-02-04T00:55:26;101633.31;;;8.00;100.00
45541;BME280;31265;49.680;8.608;2024-02-04T00:57:58;101644.13;;;8.04;100.00
45541;BME280;31265;49.680;8.608;2024-02-04T01:00:30;101632.03;;;8.07;100.00
45541;BME280;31265;49.680;8.608;2024-02-04T01:03:02;101630.78;;;8.02;100.00
45541;BME280;31265;49.680;8.608;2024-02-04T01:05:32;101627.28;;;8.02;100.00
45541;BME280;31265;49.680;8.608;2024-02-04T01:08:03;101625.75;;;8.01;100.00
45541;BME280;31265;49.680;8.608;2024-02-04T01:10:36;101619.25;;;7.98;100.00
45541;BME280;31265;49.680;8.608;2024-02-04T01:13:08;101626.00;;;8.03;100.00
45541;BME280;31265;49.680;8.608;2024-02-04T01:15:38;101631.78;;;8.05;100.00
45541;BME280;31265;49.680;8.608;2024-02-04T01:18:09;101630.31;;;7.98;100.00
45541;BME280;31265;49.680;8.608;2024-02-04T01:20:41;101635.38;;;7.94;100.00
45541;BME280;31265;49.680;8.608;2024-02-04T01:23:13;101641.41;;;7.92;100.00
45541;BME280;31265;49.680;8.608;2024-02-04T01:25:43;101643.88;;;7.96;100.00
45541;BME280;31265;49.680;8.608;2024-02-04T01:28:15;101639.91;;;7.91;100.00
45541;BME280;31265;49.680;8.608;2024-02-04T01:30:43;101637.91;;;7.92;100.00
45541;BME280;31265;49.680;8.608;2024-02-04T01:33:15;101646.44;;;7.88;100.00
45541;BME280;31265;49.680;8.608;2024-02-04T01:35:49;101629.06;;;7.93;100.00
45541;BME280;31265;49.680;8.608;2024-02-04T01:38:20;101629.59;;;7.92;100.00
45541;BME280;31265;49.680;8.608;2024-02-04T01:40:52;101643.69;;;7.88;100.00
45541;BME280;31265;49.680;8.608;2024-02-04T01:43:22;101649.75;;;7.87;100.00
45541;BME280;31265;49.680;8.608;2024-02-04T01:45:57;101644.72;;;7.85;100.00
45541;BME280;31265;49.680;8.608;2024-02-04T01:48:28;101638.94;;;7.89;100.00
45541;BME280;31265;49.680;8.608;2024-02-04T01:50:57;101643.97;;;7.85;100.00
45541;BME280;31265;49.680;8.608;2024-02-04T01:53:28;101638.44;;;7.85;100.00
45541;BME280;31265;49.680;8.608;2024-02-04T01:56:00;101638.94;;;7.83;100.00
45541;BME280;31265;49.680;8.608;2024-02-04T01:58:33;101639.94;;;7.86;100.00
45541;BME280;31265;49.680;8.608;2024-02-04T02:01:05;101637.41;;;7.88;100.00
45541;BME280;31265;49.680;8.608;2024-02-04T02:03:38;101641.44;;;7.87;100.00
45541;BME280;31265;49.680;8.608;2024-02-04T02:06:07;101640.72;;;7.81;100.00
45541;BME280;31265;49.680;8.608;2024-02-04T02:08:40;101634.19;;;7.78;100.00
45541;BME280;31265;49.680;8.608;2024-02-04T02:11:19;101638.97;;;7.78;100.00
45541;BME280;31265;49.680;8.608;2024-02-04T02:13:57;101627.94;;;7.78;100.00
45541;BME280;31265;49.680;8.608;2024-02-04T02:16:30;101629.19;;;7.77;100.00
45541;BME280;31265;49.680;8.608;2024-02-04T02:19:06;101634.22;;;7.72;100.00
45541;BME280;31265;49.680;8.608;2024-02-04T02:21:47;101632.75;;;7.66;100.00
45541;BME280;31265;49.680;8.608;2024-02-04T02:24:30;101639.03;;;7.66;100.00
45541;BME280;31265;49.680;8.608;2024-02-04T02:26:58;101628.50;;;7.65;100.00
45541;BME280;31265;49.680;8.608;2024-02-04T02:29:27;101637.81;;;7.62;100.00
45541;BME280;31265;49.680;8.608;2024-02-04T02:31:56;101644.84;;;7.63;100.00
45541;BME280;31265;49.680;8.608;2024-02-04T02:34:25;101642.09;;;7.57;100.00
45541;BME280;31265;49.680;8.608;2024-02-04T02:37:13;101631.59;;;7.50;100.00
45541;BME280;31265;49.680;8.608;2024-02-04T02:39:48;101625.06;;;7.42;100.00
45541;BME280;31265;49.680;8.608;2024-02-04T02:42:18;101623.09;;;7.42;100.00
45541;BME280;31265;49.680;8.608;2024-02-04T02:44:48;101623.59;;;7.41;100.00
45541;BME280;31265;49.680;8.608;2024-02-04T02:47:18;101629.59;;;7.39;100.00
45541;BME280;31265;49.680;8.608;2024-02-04T02:49:47;101620.81;;;7.41;100.00
45541;BME280;31265;49.680;8.608;2024-02-04T02:52:16;101605.75;;;7.42;100.00
45541;BME280;31265;49.680;8.608;2024-02-04T02:54:44;101618.34;;;7.37;100.00
45541;BME280;31265;49.680;8.608;2024-02-04T02:57:14;101611.31;;;7.30;100.00
45541;BME280;31265;49.680;8.608;2024-02-04T02:59:43;101614.59;;;7.35;100.00
45541;BME280;31265;49.680;8.608;2024-02-04T03:02:11;101620.09;;;7.35;100.00
45541;BME280;31265;49.680;8.608;2024-02-04T03:04:41;101601.03;;;7.31;100.00
45541;BME280;31265;49.680;8.608;2024-02-04T03:07:09;101611.84;;;7.23;100.00
45541;BME280;31265;49.680;8.608;2024-02-04T03:09:38;101609.84;;;7.24;100.00
45541;BME280;31265;49.680;8.608;2024-02-04T03:12:06;101615.34;;;7.24;100.00
45541;BME280;31265;49.680;8.608;2024-02-04T03:14:36;101607.84;;;7.19;100.00
45541;BME280;31265;49.680;8.608;2024-02-04T03:17:05;101602.84;;;7.11;100.00
45541;BME280;31265;49.680;8.608;2024-02-04T03:19:33;101601.38;;;7.10;100.00
45541;BME280;31265;49.680;8.608;2024-02-04T03:22:02;101601.13;;;7.08;100.00
45541;BME280;31265;49.680;8.608;2024-02-04T03:24:31;101591.59;;;7.04;100.00
45541;BME280;31265;49.680;8.608;2024-02-04T03:27:00;101603.59;;;7.12;100.00
45541;BME280;31265;49.680;8.608;2024-02-04T03:29:28;101605.38;;;7.04;100.00
45541;BME280;31265;49.680;8.608;2024-02-04T03:31:58;101614.41;;;7.04;100.00
45541;BME280;31265;49.680;8.608;2024-02-04T03:34:26;101608.66;;;7.08;100.00
45541;BME280;31265;49.680;8.608;2024-02-04T03:36:55;101611.19;;;7.00;100.00
45541;BME280;31265;49.680;8.608;2024-02-04T03:39:23;101609.16;;;7.01;100.00
45541;BME280;31265;49.680;8.608;2024-02-04T03:41:53;101605.91;;;7.02;100.00
45541;BME280;31265;49.680;8.608;2024-02-04T03:44:21;101612.41;;;6.99;100.00
45541;BME280;31265;49.680;8.608;2024-02-04T03:46:50;101613.19;;;7.00;100.00
45541;BME280;31265;49.680;8.608;2024-02-04T03:49:21;101613.44;;;7.07;100.00
45541;BME280;31265;49.680;8.608;2024-02-04T03:51:49;101601.13;;;7.03;100.00
45541;BME280;31265;49.680;8.608;2024-02-04T03:54:19;101604.91;;;7.00;100.00
45541;BME280;31265;49.680;8.608;2024-02-04T03:56:48;101593.88;;;7.00;100.00
45541;BME280;31265;49.680;8.608;2024-02-04T03:59:16;101589.34;;;7.02;100.00
45541;BME280;31265;49.680;8.608;2024-02-04T04:01:47;101596.13;;;7.01;100.00
45541;BME280;31265;49.680;8.608;2024-02-04T04:04:16;101597.84;;;7.10;100.00
45541;BME280;31265;49.680;8.608;2024-02-04T04:06:46;101602.09;;;7.11;100.00
45541;BME280;31265;49.680;8.608;2024-02-04T04:09:15;101595.09;;;7.10;100.00
45541;BME280;31265;49.680;8.608;2024-02-04T04:11:44;101594.31;;;7.09;100.00
45541;BME280;31265;49.680;8.608;2024-02-04T04:14:12;101596.09;;;7.13;100.00
45541;BME280;31265;49.680;8.608;2024-02-04T04:16:40;101597.09;;;7.15;100.00
45541;BME280;31265;49.680;8.608;2024-02-04T04:19:09;101592.06;;;7.14;100.00
45541;BME280;31265;49.680;8.608;2024-02-04T04:21:37;101605.13;;;7.13;100.00
45541;BME280;31265;49.680;8.608;2024-02-04T04:24:08;101606.34;;;7.12;100.00
45541;BME280;31265;49.680;8.608;2024-02-04T04:26:37;101600.34;;;7.14;100.00
45541;BME280;31265;49.680;8.608;2024-02-04T04:29:05;101604.13;;;7.10;100.00
45541;BME280;31265;49.680;8.608;2024-02-04T04:31:33;101602.59;;;7.09;100.00
45541;BME280;31265;49.680;8.608;2024-02-04T04:34:02;101598.81;;;7.18;100.00
45541;BME280;31265;49.680;8.608;2024-02-04T04:36:31;101605.13;;;7.13;100.00
45541;BME280;31265;49.680;8.608;2024-02-04T04:38:59;101601.09;;;7.14;100.00
45541;BME280;31265;49.680;8.608;2024-02-04T04:41:29;101606.88;;;7.10;100.00
45541;BME280;31265;49.680;8.608;2024-02-04T04:43:58;101614.41;;;7.10;100.00
45541;BME280;31265;49.680;8.608;2024-02-04T04:46:26;101606.34;;;7.12;100.00
45541;BME280;31265;49.680;8.608;2024-02-04T04:48:55;101600.63;;;7.10;100.00
45541;BME280;31265;49.680;8.608;2024-02-04T04:51:25;101607.38;;;7.09;100.00
45541;BME280;31265;49.680;8.608;2024-02-04T04:53:54;101602.09;;;7.11;100.00
45541;BME280;31265;49.680;8.608;2024-02-04T04:56:23;101611.88;;;7.12;100.00
45541;BME280;31265;49.680;8.608;2024-02-04T04:58:53;101618.41;;;7.09;100.00
45541;BME280;31265;49.680;8.608;2024-02-04T05:01:21;101619.69;;;7.08;100.00
45541;BME280;31265;49.680;8.608;2024-02-04T05:03:50;101621.69;;;7.02;100.00
45541;BME280;31265;49.680;8.608;2024-02-04T05:06:18;101614.44;;;6.99;100.00
45541;BME280;31265;49.680;8.608;2024-02-04T05:08:47;101606.41;;;7.01;100.00
45541;BME280;31265;49.680;8.608;2024-02-04T05:11:15;101607.44;;;6.98;100.00
45541;BME280;31265;49.680;8.608;2024-02-04T05:13:44;101606.66;;;6.97;100.00
45541;BME280;31265;49.680;8.608;2024-02-04T05:16:14;101604.66;;;6.98;100.00
45541;BME280;31265;49.680;8.608;2024-02-04T05:18:42;101606.41;;;7.01;100.00
45541;BME280;31265;49.680;8.608;2024-02-04T05:21:11;101612.69;;;7.01;100.00
45541;BME280;31265;49.680;8.608;2024-02-04T05:23:39;101620.72;;;7.05;100.00
45541;BME280;31265;49.680;8.608;2024-02-04T05:26:07;101609.13;;;7.12;100.00
45541;BME280;31265;49.680;8.608;2024-02-04T05:28:36;101613.34;;;7.24;100.00
45541;BME280;31265;49.680;8.608;2024-02-04T05:31:05;101614.25;;;7.49;100.00
45541;BME280;31265;49.680;8.608;2024-02-04T05:33:34;101613.41;;;7.66;100.00
45541;BME280;31265;49.680;8.608;2024-02-04T05:36:04;101609.09;;;7.76;100.00
45541;BME280;31265;49.680;8.608;2024-02-04T05:38:32;101603.75;;;7.84;100.00
45541;BME280;31265;49.680;8.608;2024-02-04T05:41:01;101591.94;;;7.89;100.00
45541;BME280;31265;49.680;8.608;2024-02-04T05:43:29;101606.75;;;7.86;100.00
45541;BME280;31265;49.680;8.608;2024-02-04T05:45:57;101611.78;;;7.87;100.00
45541;BME280;31265;49.680;8.608;2024-02-04T05:48:26;101615.31;;;7.88;100.00
45541;BME280;31265;49.680;8.608;2024-02-04T05:50:56;101610.25;;;7.92;100.00
45541;BME280;31265;49.680;8.608;2024-02-04T05:53:24;101613.25;;;7.94;100.00
45541;BME280;31265;49.680;8.608;2024-02-04T05:55:53;101610.25;;;7.92;100.00
45541;BME280;31265;49.680;8.608;2024-02-04T05:58:21;101611.69;;;8.04;100.00
45541;BME280;31265;49.680;8.608;2024-02-04T06:00:49;101602.66;;;8.04;100.00
45541;BME280;31265;49.680;8.608;2024-02-04T06:03:18;101608.94;;;7.98;100.00
45541;BME280;31265;49.680;8.608;2024-02-04T06:05:46;101607.16;;;8.07;100.00
45541;BME280;31265;49.680;8.608;2024-02-04T06:08:16;101606.16;;;8.04;100.00
45541;BME280;31265;49.680;8.608;2024-02-04T06:10:44;101611.41;;;8.08;100.00
45541;BME280;31265;49.680;8.608;2024-02-04T06:13:14;101609.16;;;8.06;100.00
45541;BME280;31265;49.680;8.608;2024-02-04T06:15:42;101606.16;;;8.04;100.00
45541;BME280;31265;49.680;8.608;2024-02-04T06:18:11;101600.38;;;8.02;100.00
45541;BME280;31265;49.680;8.608;2024-02-04T06:20:39;101591.31;;;8.07;100.00
45541;BME280;31265;49.680;8.608;2024-02-04T06:23:07;101600.06;;;8.11;100.00
45541;BME280;31265;49.680;8.608;2024-02-04T06:25:37;101580.06;;;8.30;100.00
45541;BME280;31265;49.680;8.608;2024-02-04T06:28:06;101572.38;;;8.17;100.00
45541;BME280;31265;49.680;8.608;2024-02-04T06:30:35;101576.97;;;8.39;100.00
45541;BME280;31265;49.680;8.608;2024-02-04T06:33:04;101576.00;;;8.36;100.00
45541;BME280;31265;49.680;8.608;2024-02-04T06:35:32;101583.56;;;8.30;100.00
45541;BME280;31265;49.680;8.608;2024-02-04T06:38:01;101579.59;;;8.26;100.00
45541;BME280;31265;49.680;8.608;2024-02-04T06:40:29;101580.63;;;8.23;100.00
45541;BME280;31265;49.680;8.608;2024-02-04T06:42:59;101584.66;;;8.22;100.00
45541;BME280;31265;49.680;8.608;2024-02-04T06:45:27;101578.09;;;8.25;100.00
45541;BME280;31265;49.680;8.608;2024-02-04T06:47:56;101573.38;;;8.19;100.00
45541;BME280;31265;49.680;8.608;2024-02-04T06:50:24;101566.78;;;8.23;100.00
45541;BME280;31265;49.680;8.608;2024-02-04T06:52:52;101580.06;;;8.30;100.00
45541;BME280;31265;49.680;8.608;2024-02-04T06:55:21;101575.00;;;8.34;100.00
45541;BME280;31265;49.680;8.608;2024-02-04T06:57:49;101581.09;;;8.27;100.00
45541;BME280;31265;49.680;8.608;2024-02-04T07:00:19;101593.38;;;8.31;100.00
45541;BME280;31265;49.680;8.608;2024-02-04T07:02:48;101580.28;;;8.32;100.00
45541;BME280;31265;49.680;8.608;2024-02-04T07:05:16;101599.16;;;8.33;100.00
45541;BME280;31265;49.680;8.608;2024-02-04T07:07:45;101593.88;;;8.30;100.00
45541;BME280;31265;49.680;8.608;2024-02-04T07:10:13;101597.63;;;8.32;100.00
45541;BME280;31265;49.680;8.608;2024-02-04T07:12:42;101599.41;;;8.30;100.00
45541;BME280;31265;49.680;8.608;2024-02-04T07:15:11;101593.88;;;8.30;100.00
45541;BME280;31265;49.680;8.608;2024-02-04T07:17:40;101583.75;;;8.44;100.00
45541;BME280;31265;49.680;8.608;2024-02-04T07:20:09;101575.47;;;8.38;100.00
45541;BME280;31265;49.680;8.608;2024-02-04T07:22:37;101578.97;;;8.44;100.00
45541;BME280;31265;49.680;8.608;2024-02-04T07:25:07;101586.47;;;8.49;100.00
45541;BME280;31265;49.680;8.608;2024-02-04T07:27:35;101590.31;;;8.35;100.00
45541;BME280;31265;49.680;8.608;2024-02-04T07:30:05;101595.63;;;8.33;100.00
45541;BME280;31265;49.680;8.608;2024-02-04T07:32:34;101601.38;;;8.35;100.00
45541;BME280;31265;49.680;8.608;2024-02-04T07:35:07;101606.16;;;8.40;100.00
45541;BME280;31265;49.680;8.608;2024-02-04T07:37:36;101610.16;;;8.39;100.00
45541;BME280;31265;49.680;8.608;2024-02-04T07:40:05;101605.88;;;8.38;100.00
45541;BME280;31265;49.680;8.608;2024-02-04T07:42:34;101594.94;;;8.27;100.00
45541;BME280;31265;49.680;8.608;2024-02-04T07:45:03;101608.69;;;8.32;100.00
45541;BME280;31265;49.680;8.608;2024-02-04T07:47:36;101597.41;;;8.30;100.00
45541;BME280;31265;49.680;8.608;2024-02-04T07:50:07;101601.38;;;8.35;100.00
45541;BME280;31265;49.680;8.608;2024-02-04T07:52:36;101603.91;;;8.33;100.00
45541;BME280;31265;49.680;8.608;2024-02-04T07:55:08;101603.16;;;8.32;100.00
45541;BME280;31265;49.680;8.608;2024-02-04T07:57:37;101604.25;;;8.24;100.00
45541;BME280;31265;49.680;8.608;2024-02-04T08:00:06;101592.56;;;8.06;100.00
45541;BME280;31265;49.680;8.608;2024-02-04T08:02:40;101596.09;;;8.07;100.00
45541;BME280;31265;49.680;8.608;2024-02-04T08:05:10;101607.66;;;8.05;100.00
45541;BME280;31265;49.680;8.608;2024-02-04T08:07:38;101603.91;;;8.03;100.00
45541;BME280;31265;49.680;8.608;2024-02-04T08:10:08;101604.44;;;8.01;100.00
45541;BME280;31265;49.680;8.608;2024-02-04T08:12:37;101605.19;;;7.96;100.00
45541;BME280;31265;49.680;8.608;2024-02-04T08:15:06;101607.94;;;7.96;100.00
45541;BME280;31265;49.680;8.608;2024-02-04T08:17:35;101612.50;;;7.93;100.00
45541;BME280;31265;49.680;8.608;2024-02-04T08:20:04;101611.50;;;7.96;100.00
45541;BME280;31265;49.680;8.608;2024-02-04T08:22:35;101615.03;;;7.91;100.00
45541;BME280;31265;49.680;8.608;2024-02-04T08:25:04;101617.75;;;7.97;100.00
45541;BME280;31265;49.680;8.608;2024-02-04T08:27:33;101606.47;;;7.95;100.00
45541;BME280;31265;49.680;8.608;2024-02-04T08:30:01;101606.75;;;7.91;100.00
45541;BME280;31265;49.680;8.608;2024-02-04T08:32:30;101610.25;;;7.92;100.00
45541;BME280;31265;49.680;8.608;2024-02-04T08:34:58;101604.44;;;7.95;100.00
45541;BME280;31265;49.680;8.608;2024-02-04T08:37:27;101608.94;;;7.98;100.00
45541;BME280;31265;49.680;8.608;2024-02-04T08:39:59;101604.94;;;8.00;100.00
45541;BME280;31265;49.680;8.608;2024-02-04T08:42:28;101600.94;;;7.95;100.00
45541;BME280;31265;49.680;8.608;2024-02-04T08:44:56;101604.44;;;7.95;100.00
45541;BME280;31265;49.680;8.608;2024-02-04T08:47:24;101601.88;;;8.03;100.00
45541;BME280;31265;49.680;8.608;2024-02-04T08:49:53;101603.06;;;8.13;100.00
45541;BME280;31265;49.680;8.608;2024-02-04T08:52:22;101607.84;;;8.13;100.00
45541;BME280;31265;49.680;8.608;2024-02-04T08:54:51;101610.59;;;8.13;100.00
45541;BME280;31265;49.680;8.608;2024-02-04T08:57:21;101599.53;;;8.18;100.00
45541;BME280;31265;49.680;8.608;2024-02-04T08:59:49;101609.19;;;8.36;100.00
45541;BME280;31265;49.680;8.608;2024-02-04T09:02:18;101610.47;;;8.30;100.00
45541;BME280;31265;49.680;8.608;2024-02-04T09:04:47;101606.69;;;8.33;100.00
45541;BME280;31265;49.680;8.608;2024-02-04T09:07:15;101604.91;;;8.41;100.00
45541;BME280;31265;49.680;8.608;2024-02-04T09:09:44;101614.13;;;8.49;100.00
45541;BME280;31265;49.680;8.608;2024-02-04T09:12:12;101614.81;;;8.55;100.00
45541;BME280;31265;49.680;8.608;2024-02-04T09:14:42;101597.28;;;8.47;100.00
45541;BME280;31265;49.680;8.608;2024-02-04T09:17:10;101600.06;;;8.72;100.00
45541;BME280;31265;49.680;8.608;2024-02-04T09:19:40;101586.97;;;8.97;100.00
45541;BME280;31265;49.680;8.608;2024-02-04T09:22:09;101589.91;;;9.04;100.00
45541;BME280;31265;49.680;8.608;2024-02-04T09:24:38;101579.81;;;9.07;100.00
45541;BME280;31265;49.680;8.608;2024-02-04T09:27:06;101577.13;;;9.39;100.00
45541;BME280;31265;49.680;8.608;2024-02-04T09:29:35;101584.84;;;9.46;100.00
45541;BME280;31265;49.680;8.608;2024-02-04T09:32:05;101600.66;;;9.52;100.00
45541;BME280;31265;49.680;8.608;2024-02-04T09:34:35;101602.53;;;9.62;100.00
45541;BME280;31265;49.680;8.608;2024-02-04T09:37:03;101590.72;;;9.62;100.00
45541;BME280;31265;49.680;8.608;2024-02-04T09:39:32;101588.50;;;9.74;100.00
45541;BME280;31265;49.680;8.608;2024-02-04T09:42:01;101582.69;;;9.77;100.00
45541;BME280;31265;49.680;8.608;2024-02-04T09:44:30;101585.91;;;9.62;100.00
45541;BME280;31265;49.680;8.608;2024-02-04T09:46:59;101585.69;;;9.79;100.00
45541;BME280;31265;49.680;8.608;2024-02-04T09:49:30;101579.97;;;9.90;100.00
45541;BME280;31265;49.680;8.608;2024-02-04T09:52:06;101595.63;;;9.88;100.00
45541;BME280;31265;49.680;8.608;2024-02-04T09:54:40;101594.78;;;9.93;100.00
45541;BME280;31265;49.680;8.608;2024-02-04T09:57:13;101586.81;;;10.03;100.00
45541;BME280;31265;49.680;8.608;2024-02-04T09:59:43;101585.34;;;10.02;100.00
45541;BME280;31265;49.680;8.608;2024-02-04T10:02:12;101565.16;;;10.01;100.00
45541;BME280;31265;49.680;8.608;2024-02-04T10:04:47;101555.69;;;9.97;100.00
45541;BME280;31265;49.680;8.608;2024-02-04T10:07:16;101561.56;;;10.06;100.00
45541;BME280;31265;49.680;8.608;2024-02-04T10:09:46;101576.09;;;10.12;100.00
45541;BME280;31265;49.680;8.608;2024-02-04T10:12:14;101570.22;;;10.16;100.00
45541;BME280;31265;49.680;8.608;2024-02-04T10:14:42;101556.78;;;10.20;100.00
45541;BME280;31265;49.680;8.608;2024-02-04T10:17:13;101561.50;;;10.25;100.00
45541;BME280;31265;49.680;8.608;2024-02-04T10:19:43;101564.28;;;10.25;100.00
45541;BME280;31265;49.680;8.608;2024-02-04T10:22:13;101571.06;;;10.43;100.00
45541;BME280;31265;49.680;8.608;2024-02-04T10:24:43;101584.63;;;10.47;100.00
45541;BME280;31265;49.680;8.608;2024-02-04T10:27:15;101583.78;;;10.65;100.00
45541;BME280;31265;49.680;8.608;2024-02-04T10:29:56;101574.50;;;10.63;100.00
45541;BME280;31265;49.680;8.608;2024-02-04T10:32:24;101577.72;;;10.67;100.00
45541;BME280;31265;49.680;8.608;2024-02-04T10:34:53;101580.59;;;10.74;100.00
45541;BME280;31265;49.680;8.608;2024-02-04T10:37:23;101579.09;;;10.73;100.00
45541;BME280;31265;49.680;8.608;2024-02-04T10:39:56;101593.31;;;10.83;100.00
45541;BME280;31265;49.680;8.608;2024-02-04T10:42:26;101587.09;;;10.90;100.00
45541;BME280;31265;49.680;8.608;2024-02-04T10:44:57;101576.97;;;10.93;100.00
45541;BME280;31265;49.680;8.608;2024-02-04T10:47:30;101572.47;;;10.76;100.00
45541;BME280;31265;49.680;8.608;2024-02-04T10:50:02;101579.44;;;10.83;100.00
45541;BME280;31265;49.680;8.608;2024-02-04T10:52:36;101576.22;;;10.79;100.00
45541;BME280;31265;49.680;8.608;2024-02-04T10:55:07;101566.81;;;10.69;100.00
45541;BME280;31265;49.680;8.608;2024-02-04T10:57:37;101556.34;;;10.62;100.00
45541;BME280;31265;49.680;8.608;2024-02-04T11:00:07;101557.22;;;10.57;100.00
45541;BME280;31265;49.680;8.608;2024-02-04T11:02:41;101563.06;;;10.53;100.00
45541;BME280;31265;49.680;8.608;2024-02-04T11:05:13;101557.31;;;10.51;100.00
45541;BME280;31265;49.680;8.608;2024-02-04T11:07:45;101555.78;;;10.37;100.00
45541;BME280;31265;49.680;8.608;2024-02-04T11:10:14;101563.38;;;10.36;100.00
45541;BME280;31265;49.680;8.608;2024-02-04T11:12:44;101548.38;;;10.26;100.00
45541;BME280;31265;49.680;8.608;2024-02-04T11:15:15;101559.28;;;10.24;100.00
45541;BME280;31265;49.680;8.608;2024-02-04T11:18:20;101547.22;;;10.21;100.00
45541;BME280;31265;49.680;8.608;2024-02-04T11:21:05;101541.31;;;10.11;100.00
45541;BME280;31265;49.680;8.608;2024-02-04T11:23:51;101534.81;;;10.09;100.00
45541;BME280;31265;49.680;8.608;2024-02-04T11:26:23;101528.19;;;10.12;100.00
45541;BME280;31265;49.680;8.608;2024-02-04T11:28:52;101519.66;;;10.10;100.00
45541;BME280;31265;49.680;8.608;2024-02-04T11:31:21;101512.63;;;10.09;100.00
45541;BME280;31265;49.680;8.608;2024-02-04T11:33:51;101518.78;;;10.02;100.00
45541;BME280;31265;49.680;8.608;2024-02-04T11:36:24;101510.47;;;10.02;100.00
45541;BME280;31265;49.680;8.608;2024-02-04T11:38:55;101509.84;;;10.09;100.00
45541;BME280;31265;49.680;8.608;2024-02-04T11:41:26;101509.94;;;10.03;100.00
45541;BME280;31265;49.680;8.608;2024-02-04T11:43:56;101508.03;;;10.11;100.00
45541;BME280;31265;49.680;8.608;2024-02-04T11:46:30;101505.34;;;10.06;100.00
45541;BME280;31265;49.680;8.608;2024-02-04T11:49:00;101504.59;;;10.05;100.00
45541;BME280;31265;49.680;8.608;2024-02-04T11:51:30;101503.53;;;10.08;100.00
45541;BME280;31265;49.680;8.608;2024-02-04T11:54:00;101500.13;;;10.02;100.00
45541;BME280;31265;49.680;8.608;2024-02-04T11:56:32;101496.41;;;10.13;100.00
45541;BME280;31265;49.680;8.608;2024-02-04T11:59:02;101495.03;;;10.20;100.00
45541;BME280;31265;49.680;8.608;2024-02-04T12:01:31;101509.13;;;10.22;100.00
45541;BME280;31265;49.680;8.608;2024-02-04T12:04:09;101512.75;;;10.17;100.00
45541;BME280;31265;49.680;8.608;2024-02-04T12:06:39;101500.88;;;10.16;100.00
45541;BME280;31265;49.680;8.608;2024-02-04T12:09:09;101497.16;;;10.13;100.00
45541;BME280;31265;49.680;8.608;2024-02-04T12:11:38;101493.00;;;10.20;100.00
45541;BME280;31265;49.680;8.608;2024-02-04T12:14:07;101497.44;;;10.29;100.00
45541;BME280;31265;49.680;8.608;2024-02-04T12:16:35;101504.13;;;10.33;100.00
45541;BME280;31265;49.680;8.608;2024-02-04T12:19:04;101510.50;;;10.15;100.00
45541;BME280;31265;49.680;8.608;2024-02-04T12:21:33;101507.50;;;10.13;100.00
45541;BME280;31265;49.680;8.608;2024-02-04T12:24:04;101499.72;;;10.11;100.00
45541;BME280;31265;49.680;8.608;2024-02-04T12:26:35;101497.34;;;10.02;100.00
45541;BME280;31265;49.680;8.608;2024-02-04T12:29:03;101489.22;;;9.91;100.00
45541;BME280;31265;49.680;8.608;2024-02-04T12:31:32;101487.22;;;9.92;100.00
45541;BME280;31265;49.680;8.608;2024-02-04T12:34:01;101493.50;;;9.92;100.00
45541;BME280;31265;49.680;8.608;2024-02-04T12:36:31;101488.06;;;10.00;100.00
45541;BME280;31265;49.680;8.608;2024-02-04T12:39:01;101489.22;;;9.91;100.00
45541;BME280;31265;49.680;8.608;2024-02-04T12:41:30;101493.16;;;9.96;100.00
45541;BME280;31265;49.680;8.608;2024-02-04T12:44:00;101482.81;;;9.96;100.00
45541;BME280;31265;49.680;8.608;2024-02-04T12:46:31;101470.75;;;9.94;100.00
45541;BME280;31265;49.680;8.608;2024-02-04T12:49:00;101465.44;;;9.96;100.00
45541;BME280;31265;49.680;8.608;2024-02-04T12:51:33;101475.78;;;9.95;100.00
45541;BME280;31265;49.680;8.608;2024-02-04T12:54:04;101474.94;;;10.00;100.00
45541;BME280;31265;49.680;8.608;2024-02-04T12:56:44;101462.88;;;9.98;100.00
45541;BME280;31265;49.680;8.608;2024-02-04T12:59:25;101450.22;;;10.02;100.00
45541;BME280;31265;49.680;8.608;2024-02-04T13:01:54;101450.00;;;10.00;100.00